sensor_id;sensor_type;location;lat;lon;timestamp;P1;durP1;ratioP1;P2;durP2;ratioP2
3847;SDS011;1939;48.720;9.166;2023-05-15T00:01:54;14.50;;;9.43;;
3847;SDS011;1939;48.720;9.166;2023-05-15T00:04:19;12.77;;;9.07;;
3847;SDS011;1939;48.720;9.166;2023-05-15T00:06:44;13.40;;;8.60;;
3847;SDS011;1939;48.720;9.166;2023-05-15T00:09:10;14.67;;;8.60;;
3847;SDS011;1939;48.720;9.166;2023-05-15T00:11:35;11.17;;;7.80;;
3847;SDS011;1939;48.720;9.166;2023-05-15T00:14:00;16.70;;;9.40;;
3847;SDS011;1939;48.720;9.166;2023-05-15T00:16:25;11.23;;;8.50;;
3847;SDS011;1939;48.720;9.166;2023-05-15T00:18:51;11.83;;;8.90;;
3847;SDS011;1939;48.720;9.166;2023-05-15T00:21:16;13.70;;;8.73;;
3847;SDS011;1939;48.720;9.166;2023-05-15T00:23:41;11.57;;;7.70;;
3847;SDS011;1939;48.720;9.166;2023-05-15T00:26:06;12.00;;;8.03;;
3847;SDS011;1939;48.720;9.166;2023-05-15T00:28:32;13.20;;;8.97;;
3847;SDS011;1939;48.720;9.166;2023-05-15T00:30:57;13.40;;;8.17;;
3847;SDS011;1939;48.720;9.166;2023-05-15T00:33:22;12.33;;;8.50;;
3847;SDS011;1939;48.720;9.166;2023-05-15T00:35:47;9.87;;;7.40;;
3847;SDS011;1939;48.720;9.166;2023-05-15T00:38:12;14.00;;;8.53;;
3847;SDS011;1939;48.720;9.166;2023-05-15T00:40:38;13.80;;;8.33;;
3847;SDS011;1939;48.720;9.166;2023-05-15T00:43:04;14.47;;;8.27;;
3847;SDS011;1939;48.720;9.166;2023-05-15T00:45:30;11.20;;;7.53;;
3847;SDS011;1939;48.720;9.166;2023-05-15T00:47:56;12.23;;;8.03;;
3847;SDS011;1939;48.720;9.166;2023-05-15T00:50:21;9.93;;;7.10;;
3847;SDS011;1939;48.720;9.166;2023-05-15T00:52:47;14.23;;;8.53;;
3847;SDS011;1939;48.720;9.166;2023-05-15T00:55:12;12.97;;;8.90;;
3847;SDS011;1939;48.720;9.166;2023-05-15T00:57:38;10.40;;;6.40;;
3847;SDS011;1939;48.720;9.166;2023-05-15T01:00:05;10.17;;;7.93;;
3847;SDS011;1939;48.720;9.166;2023-05-15T01:02:34;11.40;;;8.00;;
3847;SDS011;1939;48.720;9.166;2023-05-15T01:04:59;10.13;;;7.00;;
3847;SDS011;1939;48.720;9.166;2023-05-15T01:07:25;10.47;;;6.60;;
3847;SDS011;1939;48.720;9.166;2023-05-15T01:09:51;7.20;;;5.57;;
3847;SDS011;1939;48.720;9.166;2023-05-15T01:12:16;11.77;;;7.67;;
3847;SDS011;1939;48.720;9.166;2023-05-15T01:14:42;10.93;;;7.40;;
3847;SDS011;1939;48.720;9.166;2023-05-15T01:17:07;9.53;;;6.30;;
3847;SDS011;1939;48.720;9.166;2023-05-15T01:19:33;16.77;;;7.00;;
3847;SDS011;1939;48.720;9.166;2023-05-15T01:22:17;12.90;;;6.33;;
3847;SDS011;1939;48.720;9.166;2023-05-15T01:27:33;11.20;;;7.20;;
3847;SDS011;1939;48.720;9.166;2023-05-15T01:30:11;9.70;;;6.63;;
3847;SDS011;1939;48.720;9.166;2023-05-15T01:32:42;7.13;;;5.53;;
3847;SDS011;1939;48.720;9.166;2023-05-15T01:35:12;10.23;;;7.10;;
3847;SDS011;1939;48.720;9.166;2023-05-15T01:37:43;9.50;;;6.73;;
3847;SDS011;1939;48.720;9.166;2023-05-15T01:40:09;9.07;;;6.10;;
3847;SDS011;1939;48.720;9.166;2023-05-15T01:42:35;6.97;;;5.70;;
3847;SDS011;1939;48.720;9.166;2023-05-15T01:45:03;8.87;;;6.83;;
3847;SDS011;1939;48.720;9.166;2023-05-15T01:47:35;12.77;;;6.10;;
3847;SDS011;1939;48.720;9.166;2023-05-15T01:50:02;11.63;;;7.03;;
3847;SDS011;1939;48.720;9.166;2023-05-15T01:52:28;8.53;;;6.50;;
3847;SDS011;1939;48.720;9.166;2023-05-15T01:54:54;8.93;;;6.30;;
3847;SDS011;1939;48.720;9.166;2023-05-15T01:57:21;9.57;;;6.77;;
3847;SDS011;1939;48.720;9.166;2023-05-15T01:59:47;10.67;;;6.97;;
3847;SDS011;1939;48.720;9.166;2023-05-15T02:02:13;10.90;;;6.87;;
3847;SDS011;1939;48.720;9.166;2023-05-15T02:04:39;8.93;;;6.27;;
3847;SDS011;1939;48.720;9.166;2023-05-15T02:07:04;9.50;;;5.77;;
3847;SDS011;1939;48.720;9.166;2023-05-15T02:09:31;7.60;;;5.70;;
3847;SDS011;1939;48.720;9.166;2023-05-15T02:11:56;8.00;;;5.87;;
3847;SDS011;1939;48.720;9.166;2023-05-15T02:14:22;9.80;;;6.80;;
3847;SDS011;1939;48.720;9.166;2023-05-15T02:16:48;8.40;;;6.43;;
3847;SDS011;1939;48.720;9.166;2023-05-15T02:19:13;8.90;;;6.17;;
3847;SDS011;1939;48.720;9.166;2023-05-15T02:21:38;8.30;;;6.30;;
3847;SDS011;1939;48.720;9.166;2023-05-15T02:24:03;9.10;;;6.60;;
3847;SDS011;1939;48.720;9.166;2023-05-15T02:26:30;7.40;;;5.60;;
3847;SDS011;1939;48.720;9.166;2023-05-15T02:29:03;8.60;;;6.50;;
3847;SDS011;1939;48.720;9.166;2023-05-15T02:31:32;5.87;;;5.10;;
3847;SDS011;1939;48.720;9.166;2023-05-15T02:34:02;7.90;;;5.37;;
3847;SDS011;1939;48.720;9.166;2023-05-15T02:36:31;8.67;;;5.97;;
3847;SDS011;1939;48.720;9.166;2023-05-15T02:38:57;6.97;;;5.70;;
3847;SDS011;1939;48.720;9.166;2023-05-15T02:41:23;10.47;;;7.10;;
3847;SDS011;1939;48.720;9.166;2023-05-15T02:43:49;10.10;;;6.10;;
3847;SDS011;1939;48.720;9.166;2023-05-15T02:46:14;7.83;;;5.30;;
3847;SDS011;1939;48.720;9.166;2023-05-15T02:48:40;7.37;;;5.40;;
3847;SDS011;1939;48.720;9.166;2023-05-15T02:51:05;7.97;;;5.87;;
3847;SDS011;1939;48.720;9.166;2023-05-15T02:53:31;7.20;;;5.77;;
3847;SDS011;1939;48.720;9.166;2023-05-15T02:55:56;10.57;;;6.90;;
3847;SDS011;1939;48.720;9.166;2023-05-15T02:58:22;9.10;;;5.70;;
3847;SDS011;1939;48.720;9.166;2023-05-15T03:00:47;11.03;;;7.80;;
3847;SDS011;1939;48.720;9.166;2023-05-15T03:03:12;12.83;;;5.57;;
3847;SDS011;1939;48.720;9.166;2023-05-15T03:05:37;9.27;;;5.87;;
3847;SDS011;1939;48.720;9.166;2023-05-15T03:08:03;5.53;;;4.93;;
3847;SDS011;1939;48.720;9.166;2023-05-15T03:10:29;8.47;;;5.60;;
3847;SDS011;1939;48.720;9.166;2023-05-15T03:12:54;9.50;;;6.50;;
3847;SDS011;1939;48.720;9.166;2023-05-15T03:15:22;9.33;;;5.63;;
3847;SDS011;1939;48.720;9.166;2023-05-15T03:17:47;13.23;;;5.57;;
3847;SDS011;1939;48.720;9.166;2023-05-15T03:20:12;12.33;;;6.53;;
3847;SDS011;1939;48.720;9.166;2023-05-15T03:22:38;11.80;;;6.27;;
3847;SDS011;1939;48.720;9.166;2023-05-15T03:25:03;6.87;;;5.50;;
3847;SDS011;1939;48.720;9.166;2023-05-15T03:27:29;10.90;;;6.27;;
3847;SDS011;1939;48.720;9.166;2023-05-15T03:29:54;8.30;;;5.70;;
3847;SDS011;1939;48.720;9.166;2023-05-15T03:32:19;8.47;;;5.10;;
3847;SDS011;1939;48.720;9.166;2023-05-15T03:34:45;6.17;;;5.40;;
3847;SDS011;1939;48.720;9.166;2023-05-15T03:37:10;7.67;;;5.80;;
3847;SDS011;1939;48.720;9.166;2023-05-15T03:39:35;6.80;;;5.57;;
3847;SDS011;1939;48.720;9.166;2023-05-15T03:42:00;8.50;;;5.57;;
3847;SDS011;1939;48.720;9.166;2023-05-15T03:44:26;8.13;;;5.77;;
3847;SDS011;1939;48.720;9.166;2023-05-15T03:46:51;8.10;;;5.60;;
3847;SDS011;1939;48.720;9.166;2023-05-15T03:49:16;9.10;;;5.77;;
3847;SDS011;1939;48.720;9.166;2023-05-15T03:51:41;7.97;;;6.57;;
3847;SDS011;1939;48.720;9.166;2023-05-15T03:54:06;7.50;;;5.60;;
3847;SDS011;1939;48.720;9.166;2023-05-15T03:56:32;9.77;;;6.00;;
3847;SDS011;1939;48.720;9.166;2023-05-15T03:58:57;6.87;;;5.67;;
3847;SDS011;1939;48.720;9.166;2023-05-15T04:01:23;7.90;;;5.77;;
3847;SDS011;1939;48.720;9.166;2023-05-15T04:03:48;8.90;;;6.03;;
3847;SDS011;1939;48.720;9.166;2023-05-15T04:06:13;8.57;;;6.13;;
3847;SDS011;1939;48.720;9.166;2023-05-15T04:08:38;5.30;;;4.53;;
3847;SDS011;1939;48.720;9.166;2023-05-15T04:11:04;9.13;;;5.67;;
3847;SDS011;1939;48.720;9.166;2023-05-15T04:13:29;8.70;;;6.50;;
3847;SDS011;1939;48.720;9.166;2023-05-15T04:15:55;12.33;;;6.10;;
3847;SDS011;1939;48.720;9.166;2023-05-15T04:18:20;8.37;;;5.77;;
3847;SDS011;1939;48.720;9.166;2023-05-15T04:20:45;8.90;;;6.10;;
3847;SDS011;1939;48.720;9.166;2023-05-15T04:23:10;8.27;;;6.43;;
3847;SDS011;1939;48.720;9.166;2023-05-15T04:25:36;9.03;;;6.60;;
3847;SDS011;1939;48.720;9.166;2023-05-15T04:28:01;8.67;;;5.90;;
3847;SDS011;1939;48.720;9.166;2023-05-15T04:30:26;9.23;;;6.20;;
3847;SDS011;1939;48.720;9.166;2023-05-15T04:32:52;10.13;;;6.33;;
3847;SDS011;1939;48.720;9.166;2023-05-15T04:35:17;9.27;;;6.20;;
3847;SDS011;1939;48.720;9.166;2023-05-15T04:37:43;7.17;;;5.80;;
3847;SDS011;1939;48.720;9.166;2023-05-15T04:40:11;8.43;;;5.50;;
3847;SDS011;1939;48.720;9.166;2023-05-15T04:42:38;9.97;;;6.83;;
3847;SDS011;1939;48.720;9.166;2023-05-15T04:45:04;8.50;;;6.30;;
3847;SDS011;1939;48.720;9.166;2023-05-15T04:47:29;8.13;;;6.40;;
3847;SDS011;1939;48.720;9.166;2023-05-15T04:49:55;7.90;;;6.17;;
3847;SDS011;1939;48.720;9.166;2023-05-15T04:52:20;10.93;;;6.70;;
3847;SDS011;1939;48.720;9.166;2023-05-15T04:54:45;8.03;;;5.87;;
3847;SDS011;1939;48.720;9.166;2023-05-15T04:57:12;7.87;;;6.10;;
3847;SDS011;1939;48.720;9.166;2023-05-15T04:59:37;10.37;;;6.33;;
3847;SDS011;1939;48.720;9.166;2023-05-15T05:02:02;10.47;;;7.80;;
3847;SDS011;1939;48.720;9.166;2023-05-15T05:04:28;7.17;;;5.67;;
3847;SDS011;1939;48.720;9.166;2023-05-15T05:06:53;8.30;;;5.93;;
3847;SDS011;1939;48.720;9.166;2023-05-15T05:09:18;9.30;;;6.40;;
3847;SDS011;1939;48.720;9.166;2023-05-15T05:11:44;8.03;;;5.97;;
3847;SDS011;1939;48.720;9.166;2023-05-15T05:14:10;9.83;;;6.80;;
3847;SDS011;1939;48.720;9.166;2023-05-15T05:16:35;8.80;;;6.20;;
3847;SDS011;1939;48.720;9.166;2023-05-15T05:19:00;12.43;;;8.47;;
3847;SDS011;1939;48.720;9.166;2023-05-15T05:21:26;10.00;;;6.93;;
3847;SDS011;1939;48.720;9.166;2023-05-15T05:23:51;9.17;;;7.40;;
3847;SDS011;1939;48.720;9.166;2023-05-15T05:26:16;10.80;;;6.87;;
3847;SDS011;1939;48.720;9.166;2023-05-15T05:28:41;7.93;;;6.57;;
3847;SDS011;1939;48.720;9.166;2023-05-15T05:31:07;8.87;;;6.40;;
3847;SDS011;1939;48.720;9.166;2023-05-15T05:33:32;7.30;;;5.87;;
3847;SDS011;1939;48.720;9.166;2023-05-15T05:35:57;9.00;;;6.10;;
3847;SDS011;1939;48.720;9.166;2023-05-15T05:38:22;7.93;;;6.13;;
3847;SDS011;1939;48.720;9.166;2023-05-15T05:40:48;9.03;;;7.20;;
3847;SDS011;1939;48.720;9.166;2023-05-15T05:43:13;9.17;;;7.27;;
3847;SDS011;1939;48.720;9.166;2023-05-15T05:45:38;8.00;;;6.67;;
3847;SDS011;1939;48.720;9.166;2023-05-15T05:48:03;7.50;;;6.73;;
3847;SDS011;1939;48.720;9.166;2023-05-15T05:50:28;11.63;;;7.97;;
3847;SDS011;1939;48.720;9.166;2023-05-15T05:52:54;7.60;;;6.03;;
3847;SDS011;1939;48.720;9.166;2023-05-15T05:55:19;10.23;;;6.73;;
3847;SDS011;1939;48.720;9.166;2023-05-15T05:57:44;8.17;;;6.27;;
3847;SDS011;1939;48.720;9.166;2023-05-15T06:00:10;9.37;;;6.73;;
3847;SDS011;1939;48.720;9.166;2023-05-15T06:02:35;8.53;;;6.67;;
3847;SDS011;1939;48.720;9.166;2023-05-15T06:05:01;9.07;;;6.40;;
3847;SDS011;1939;48.720;9.166;2023-05-15T06:07:26;7.80;;;6.80;;
3847;SDS011;1939;48.720;9.166;2023-05-15T06:09:52;10.40;;;7.07;;
3847;SDS011;1939;48.720;9.166;2023-05-15T06:12:17;8.50;;;7.20;;
3847;SDS011;1939;48.720;9.166;2023-05-15T06:14:42;9.70;;;7.10;;
3847;SDS011;1939;48.720;9.166;2023-05-15T06:17:07;14.43;;;7.47;;
3847;SDS011;1939;48.720;9.166;2023-05-15T06:19:33;8.53;;;7.20;;
3847;SDS011;1939;48.720;9.166;2023-05-15T06:21:58;9.47;;;5.97;;
3847;SDS011;1939;48.720;9.166;2023-05-15T06:24:23;9.20;;;7.00;;
3847;SDS011;1939;48.720;9.166;2023-05-15T06:26:48;9.90;;;6.67;;
3847;SDS011;1939;48.720;9.166;2023-05-15T06:29:14;8.30;;;5.73;;
3847;SDS011;1939;48.720;9.166;2023-05-15T06:31:39;7.80;;;5.90;;
3847;SDS011;1939;48.720;9.166;2023-05-15T06:34:04;7.20;;;4.83;;
3847;SDS011;1939;48.720;9.166;2023-05-15T06:36:30;5.03;;;4.53;;
3847;SDS011;1939;48.720;9.166;2023-05-15T06:38:55;6.00;;;5.50;;
3847;SDS011;1939;48.720;9.166;2023-05-15T06:41:21;11.33;;;5.43;;
3847;SDS011;1939;48.720;9.166;2023-05-15T06:43:46;5.63;;;5.13;;
3847;SDS011;1939;48.720;9.166;2023-05-15T06:46:11;7.53;;;5.80;;
3847;SDS011;1939;48.720;9.166;2023-05-15T06:48:40;7.30;;;6.30;;
3847;SDS011;1939;48.720;9.166;2023-05-15T06:51:05;5.17;;;4.70;;
3847;SDS011;1939;48.720;9.166;2023-05-15T06:53:30;5.20;;;4.80;;
3847;SDS011;1939;48.720;9.166;2023-05-15T06:55:55;4.90;;;4.50;;
3847;SDS011;1939;48.720;9.166;2023-05-15T06:58:21;6.57;;;4.90;;
3847;SDS011;1939;48.720;9.166;2023-05-15T07:00:46;5.57;;;5.07;;
3847;SDS011;1939;48.720;9.166;2023-05-15T07:03:11;5.33;;;4.93;;
3847;SDS011;1939;48.720;9.166;2023-05-15T07:05:38;5.20;;;4.80;;
3847;SDS011;1939;48.720;9.166;2023-05-15T07:08:03;6.97;;;4.60;;
3847;SDS011;1939;48.720;9.166;2023-05-15T07:10:29;5.60;;;4.67;;
3847;SDS011;1939;48.720;9.166;2023-05-15T07:12:54;4.80;;;4.40;;
3847;SDS011;1939;48.720;9.166;2023-05-15T07:15:19;7.83;;;4.90;;
3847;SDS011;1939;48.720;9.166;2023-05-15T07:17:44;5.50;;;4.50;;
3847;SDS011;1939;48.720;9.166;2023-05-15T07:20:09;4.10;;;3.80;;
3847;SDS011;1939;48.720;9.166;2023-05-15T07:22:35;4.80;;;4.50;;
3847;SDS011;1939;48.720;9.166;2023-05-15T07:25:00;9.87;;;4.27;;
3847;SDS011;1939;48.720;9.166;2023-05-15T07:27:25;4.50;;;4.10;;
3847;SDS011;1939;48.720;9.166;2023-05-15T07:29:52;6.30;;;4.27;;
3847;SDS011;1939;48.720;9.166;2023-05-15T07:32:17;6.90;;;4.63;;
3847;SDS011;1939;48.720;9.166;2023-05-15T07:34:42;4.30;;;3.70;;
3847;SDS011;1939;48.720;9.166;2023-05-15T07:37:07;4.50;;;4.10;;
3847;SDS011;1939;48.720;9.166;2023-05-15T07:39:33;5.20;;;4.30;;
3847;SDS011;1939;48.720;9.166;2023-05-15T07:41:59;7.47;;;4.80;;
3847;SDS011;1939;48.720;9.166;2023-05-15T07:44:24;5.37;;;4.33;;
3847;SDS011;1939;48.720;9.166;2023-05-15T07:46:50;4.13;;;3.53;;
3847;SDS011;1939;48.720;9.166;2023-05-15T07:49:15;4.47;;;4.07;;
3847;SDS011;1939;48.720;9.166;2023-05-15T07:51:40;4.97;;;3.50;;
3847;SDS011;1939;48.720;9.166;2023-05-15T07:54:06;3.90;;;3.30;;
3847;SDS011;1939;48.720;9.166;2023-05-15T07:56:31;3.50;;;3.20;;
3847;SDS011;1939;48.720;9.166;2023-05-15T07:58:57;4.80;;;3.90;;
3847;SDS011;1939;48.720;9.166;2023-05-15T08:01:22;3.90;;;2.90;;
3847;SDS011;1939;48.720;9.166;2023-05-15T08:03:47;3.73;;;3.43;;
3847;SDS011;1939;48.720;9.166;2023-05-15T08:06:12;3.70;;;2.40;;
3847;SDS011;1939;48.720;9.166;2023-05-15T08:08:38;4.90;;;3.17;;
3847;SDS011;1939;48.720;9.166;2023-05-15T08:11:03;3.53;;;3.20;;
3847;SDS011;1939;48.720;9.166;2023-05-15T08:13:28;2.47;;;2.27;;
3847;SDS011;1939;48.720;9.166;2023-05-15T08:15:53;6.00;;;3.63;;
3847;SDS011;1939;48.720;9.166;2023-05-15T08:18:19;2.90;;;2.70;;
3847;SDS011;1939;48.720;9.166;2023-05-15T08:20:44;3.40;;;3.10;;
3847;SDS011;1939;48.720;9.166;2023-05-15T08:23:09;2.97;;;2.77;;
3847;SDS011;1939;48.720;9.166;2023-05-15T08:25:35;3.47;;;3.17;;
3847;SDS011;1939;48.720;9.166;2023-05-15T08:28:00;5.30;;;3.13;;
3847;SDS011;1939;48.720;9.166;2023-05-15T08:30:26;3.43;;;2.90;;
3847;SDS011;1939;48.720;9.166;2023-05-15T08:32:51;3.50;;;3.20;;
3847;SDS011;1939;48.720;9.166;2023-05-15T08:35:16;3.93;;;3.00;;
3847;SDS011;1939;48.720;9.166;2023-05-15T08:37:42;3.33;;;3.03;;
3847;SDS011;1939;48.720;9.166;2023-05-15T08:40:07;3.20;;;2.90;;
3847;SDS011;1939;48.720;9.166;2023-05-15T08:45:04;4.53;;;3.07;;
3847;SDS011;1939;48.720;9.166;2023-05-15T08:47:31;3.00;;;2.80;;
3847;SDS011;1939;48.720;9.166;2023-05-15T08:52:39;3.13;;;2.83;;
3847;SDS011;1939;48.720;9.166;2023-05-15T08:55:06;3.70;;;2.63;;
3847;SDS011;1939;48.720;9.166;2023-05-15T08:57:31;3.93;;;2.50;;
3847;SDS011;1939;48.720;9.166;2023-05-15T08:59:56;5.23;;;2.53;;
3847;SDS011;1939;48.720;9.166;2023-05-15T09:02:23;4.47;;;2.90;;
3847;SDS011;1939;48.720;9.166;2023-05-15T09:04:49;3.70;;;2.70;;
3847;SDS011;1939;48.720;9.166;2023-05-15T09:07:14;3.20;;;3.00;;
3847;SDS011;1939;48.720;9.166;2023-05-15T09:09:40;3.87;;;3.47;;
3847;SDS011;1939;48.720;9.166;2023-05-15T09:12:06;3.87;;;3.57;;
3847;SDS011;1939;48.720;9.166;2023-05-15T09:14:34;3.27;;;2.97;;
3847;SDS011;1939;48.720;9.166;2023-05-15T09:17:00;4.43;;;3.23;;
3847;SDS011;1939;48.720;9.166;2023-05-15T09:19:25;3.10;;;2.80;;
3847;SDS011;1939;48.720;9.166;2023-05-15T09:21:50;2.93;;;2.73;;
3847;SDS011;1939;48.720;9.166;2023-05-15T09:24:23;3.97;;;3.57;;
3847;SDS011;1939;48.720;9.166;2023-05-15T09:27:01;5.17;;;3.50;;
3847;SDS011;1939;48.720;9.166;2023-05-15T09:29:28;4.23;;;3.30;;
3847;SDS011;1939;48.720;9.166;2023-05-15T09:31:53;5.20;;;3.97;;
3847;SDS011;1939;48.720;9.166;2023-05-15T09:34:18;3.97;;;3.53;;
3847;SDS011;1939;48.720;9.166;2023-05-15T09:36:52;4.33;;;3.93;;
3847;SDS011;1939;48.720;9.166;2023-05-15T09:39:20;4.30;;;3.87;;
3847;SDS011;1939;48.720;9.166;2023-05-15T09:41:46;3.80;;;3.50;;
3847;SDS011;1939;48.720;9.166;2023-05-15T09:44:18;11.43;;;3.77;;
3847;SDS011;1939;48.720;9.166;2023-05-15T09:46:44;11.93;;;4.83;;
3847;SDS011;1939;48.720;9.166;2023-05-15T09:49:09;8.67;;;5.33;;
3847;SDS011;1939;48.720;9.166;2023-05-15T09:51:35;5.13;;;4.00;;
3847;SDS011;1939;48.720;9.166;2023-05-15T09:54:00;5.67;;;4.90;;
3847;SDS011;1939;48.720;9.166;2023-05-15T09:56:26;7.57;;;5.33;;
3847;SDS011;1939;48.720;9.166;2023-05-15T09:58:55;5.80;;;5.20;;
3847;SDS011;1939;48.720;9.166;2023-05-15T10:01:21;5.63;;;4.93;;
3847;SDS011;1939;48.720;9.166;2023-05-15T10:03:59;8.43;;;5.20;;
3847;SDS011;1939;48.720;9.166;2023-05-15T10:06:25;11.37;;;5.10;;
3847;SDS011;1939;48.720;9.166;2023-05-15T10:08:53;4.33;;;3.77;;
3847;SDS011;1939;48.720;9.166;2023-05-15T10:11:19;5.17;;;4.50;;
3847;SDS011;1939;48.720;9.166;2023-05-15T10:13:45;3.83;;;3.50;;
3847;SDS011;1939;48.720;9.166;2023-05-15T10:16:11;10.57;;;5.23;;
3847;SDS011;1939;48.720;9.166;2023-05-15T10:18:37;4.80;;;4.27;;
3847;SDS011;1939;48.720;9.166;2023-05-15T10:21:04;5.53;;;4.13;;
3847;SDS011;1939;48.720;9.166;2023-05-15T10:23:29;4.97;;;4.10;;
3847;SDS011;1939;48.720;9.166;2023-05-15T10:26:01;5.57;;;3.30;;
3847;SDS011;1939;48.720;9.166;2023-05-15T10:28:28;4.27;;;3.87;;
3847;SDS011;1939;48.720;9.166;2023-05-15T10:30:53;3.37;;;3.07;;
3847;SDS011;1939;48.720;9.166;2023-05-15T10:33:21;3.97;;;3.10;;
3847;SDS011;1939;48.720;9.166;2023-05-15T10:35:47;4.80;;;3.90;;
3847;SDS011;1939;48.720;9.166;2023-05-15T10:38:12;4.60;;;3.67;;
3847;SDS011;1939;48.720;9.166;2023-05-15T10:40:38;10.50;;;3.87;;
3847;SDS011;1939;48.720;9.166;2023-05-15T10:43:04;3.63;;;3.33;;
3847;SDS011;1939;48.720;9.166;2023-05-15T10:45:30;3.87;;;3.47;;
3847;SDS011;1939;48.720;9.166;2023-05-15T10:47:56;5.20;;;3.93;;
3847;SDS011;1939;48.720;9.166;2023-05-15T10:50:22;3.97;;;3.50;;
3847;SDS011;1939;48.720;9.166;2023-05-15T10:52:49;5.23;;;3.57;;
3847;SDS011;1939;48.720;9.166;2023-05-15T10:55:15;5.07;;;3.47;;
3847;SDS011;1939;48.720;9.166;2023-05-15T10:57:41;6.83;;;4.50;;
3847;SDS011;1939;48.720;9.166;2023-05-15T11:00:25;3.50;;;3.20;;
3847;SDS011;1939;48.720;9.166;2023-05-15T11:02:51;4.70;;;2.30;;
3847;SDS011;1939;48.720;9.166;2023-05-15T11:05:18;4.23;;;2.50;;
3847;SDS011;1939;48.720;9.166;2023-05-15T11:07:43;3.10;;;2.80;;
3847;SDS011;1939;48.720;9.166;2023-05-15T11:13:12;2.80;;;2.53;;
3847;SDS011;1939;48.720;9.166;2023-05-15T11:15:44;3.43;;;3.13;;
3847;SDS011;1939;48.720;9.166;2023-05-15T11:18:09;5.70;;;2.70;;
3847;SDS011;1939;48.720;9.166;2023-05-15T11:20:42;2.37;;;2.17;;
3847;SDS011;1939;48.720;9.166;2023-05-15T11:23:26;6.30;;;2.97;;
3847;SDS011;1939;48.720;9.166;2023-05-15T11:25:54;3.20;;;2.50;;
3847;SDS011;1939;48.720;9.166;2023-05-15T11:28:20;3.17;;;2.50;;
3847;SDS011;1939;48.720;9.166;2023-05-15T11:30:46;3.90;;;2.07;;
3847;SDS011;1939;48.720;9.166;2023-05-15T11:33:14;3.40;;;2.63;;
3847;SDS011;1939;48.720;9.166;2023-05-15T11:35:40;2.80;;;2.60;;
3847;SDS011;1939;48.720;9.166;2023-05-15T11:38:17;3.40;;;2.90;;
3847;SDS011;1939;48.720;9.166;2023-05-15T11:43:23;2.50;;;2.30;;
3847;SDS011;1939;48.720;9.166;2023-05-15T11:45:52;3.20;;;2.90;;
3847;SDS011;1939;48.720;9.166;2023-05-15T11:48:20;3.30;;;2.33;;
3847;SDS011;1939;48.720;9.166;2023-05-15T11:50:45;5.23;;;3.17;;
3847;SDS011;1939;48.720;9.166;2023-05-15T11:53:11;3.70;;;2.93;;
3847;SDS011;1939;48.720;9.166;2023-05-15T11:55:37;2.67;;;2.47;;
3847;SDS011;1939;48.720;9.166;2023-05-15T11:58:03;2.50;;;2.30;;
3847;SDS011;1939;48.720;9.166;2023-05-15T12:00:28;2.50;;;2.30;;
3847;SDS011;1939;48.720;9.166;2023-05-15T12:02:54;3.50;;;2.60;;
3847;SDS011;1939;48.720;9.166;2023-05-15T12:05:20;3.80;;;2.50;;
3847;SDS011;1939;48.720;9.166;2023-05-15T12:07:45;3.40;;;2.50;;
3847;SDS011;1939;48.720;9.166;2023-05-15T12:10:11;2.53;;;2.33;;
3847;SDS011;1939;48.720;9.166;2023-05-15T12:12:43;2.00;;;1.90;;
3847;SDS011;1939;48.720;9.166;2023-05-15T12:15:09;14.40;;;2.23;;
3847;SDS011;1939;48.720;9.166;2023-05-15T12:17:35;2.60;;;2.30;;
3847;SDS011;1939;48.720;9.166;2023-05-15T12:20:00;2.63;;;2.40;;
3847;SDS011;1939;48.720;9.166;2023-05-15T12:22:34;2.53;;;2.33;;
3847;SDS011;1939;48.720;9.166;2023-05-15T12:24:59;3.63;;;2.73;;
3847;SDS011;1939;48.720;9.166;2023-05-15T12:27:25;16.77;;;2.83;;
3847;SDS011;1939;48.720;9.166;2023-05-15T12:29:50;4.73;;;2.63;;
3847;SDS011;1939;48.720;9.166;2023-05-15T12:32:16;3.40;;;3.10;;
3847;SDS011;1939;48.720;9.166;2023-05-15T12:34:41;6.80;;;3.30;;
3847;SDS011;1939;48.720;9.166;2023-05-15T12:37:10;3.60;;;3.30;;
3847;SDS011;1939;48.720;9.166;2023-05-15T12:39:35;6.20;;;3.40;;
3847;SDS011;1939;48.720;9.166;2023-05-15T12:42:02;4.07;;;3.33;;
3847;SDS011;1939;48.720;9.166;2023-05-15T12:44:27;4.23;;;3.70;;
3847;SDS011;1939;48.720;9.166;2023-05-15T12:46:53;3.10;;;2.77;;
3847;SDS011;1939;48.720;9.166;2023-05-15T12:49:20;3.33;;;3.13;;
3847;SDS011;1939;48.720;9.166;2023-05-15T12:51:45;5.00;;;3.33;;
3847;SDS011;1939;48.720;9.166;2023-05-15T12:54:17;3.17;;;2.87;;
3847;SDS011;1939;48.720;9.166;2023-05-15T12:56:43;4.00;;;2.80;;
3847;SDS011;1939;48.720;9.166;2023-05-15T12:59:09;3.00;;;2.80;;
3847;SDS011;1939;48.720;9.166;2023-05-15T13:01:34;6.47;;;2.83;;
3847;SDS011;1939;48.720;9.166;2023-05-15T13:03:59;5.67;;;3.40;;
3847;SDS011;1939;48.720;9.166;2023-05-15T13:06:25;6.67;;;3.20;;
3847;SDS011;1939;48.720;9.166;2023-05-15T13:08:52;3.30;;;3.10;;
3847;SDS011;1939;48.720;9.166;2023-05-15T13:11:17;4.80;;;3.73;;
3847;SDS011;1939;48.720;9.166;2023-05-15T13:13:47;3.70;;;3.40;;
3847;SDS011;1939;48.720;9.166;2023-05-15T13:16:19;4.00;;;3.10;;
3847;SDS011;1939;48.720;9.166;2023-05-15T13:18:44;5.53;;;3.50;;
3847;SDS011;1939;48.720;9.166;2023-05-15T13:21:10;6.30;;;3.10;;
3847;SDS011;1939;48.720;9.166;2023-05-15T13:23:35;6.00;;;3.77;;
3847;SDS011;1939;48.720;9.166;2023-05-15T13:26:00;4.33;;;3.13;;
3847;SDS011;1939;48.720;9.166;2023-05-15T13:28:25;4.80;;;2.80;;
3847;SDS011;1939;48.720;9.166;2023-05-15T13:30:51;6.80;;;3.80;;
3847;SDS011;1939;48.720;9.166;2023-05-15T13:33:16;3.63;;;3.33;;
3847;SDS011;1939;48.720;9.166;2023-05-15T13:35:41;4.33;;;3.37;;
3847;SDS011;1939;48.720;9.166;2023-05-15T13:38:07;5.53;;;3.40;;
3847;SDS011;1939;48.720;9.166;2023-05-15T13:40:32;3.67;;;3.27;;
3847;SDS011;1939;48.720;9.166;2023-05-15T13:42:59;6.87;;;3.13;;
3847;SDS011;1939;48.720;9.166;2023-05-15T13:45:24;4.83;;;3.47;;
3847;SDS011;1939;48.720;9.166;2023-05-15T13:47:49;3.90;;;3.50;;
3847;SDS011;1939;48.720;9.166;2023-05-15T13:50:15;4.13;;;3.63;;
3847;SDS011;1939;48.720;9.166;2023-05-15T13:52:41;3.70;;;3.40;;
3847;SDS011;1939;48.720;9.166;2023-05-15T13:55:07;5.20;;;3.63;;
3847;SDS011;1939;48.720;9.166;2023-05-15T13:57:34;5.60;;;3.77;;
3847;SDS011;1939;48.720;9.166;2023-05-15T14:00:00;4.70;;;3.63;;
3847;SDS011;1939;48.720;9.166;2023-05-15T14:02:25;4.37;;;3.97;;
3847;SDS011;1939;48.720;9.166;2023-05-15T14:04:51;5.40;;;3.80;;
3847;SDS011;1939;48.720;9.166;2023-05-15T14:07:17;7.03;;;4.37;;
3847;SDS011;1939;48.720;9.166;2023-05-15T14:09:42;5.53;;;4.80;;
3847;SDS011;1939;48.720;9.166;2023-05-15T14:12:08;3.93;;;3.63;;
3847;SDS011;1939;48.720;9.166;2023-05-15T14:14:33;7.83;;;5.10;;
3847;SDS011;1939;48.720;9.166;2023-05-15T14:16:59;5.23;;;4.73;;
3847;SDS011;1939;48.720;9.166;2023-05-15T14:19:24;7.47;;;4.77;;
3847;SDS011;1939;48.720;9.166;2023-05-15T14:21:49;8.60;;;4.67;;
3847;SDS011;1939;48.720;9.166;2023-05-15T14:24:15;6.03;;;5.43;;
3847;SDS011;1939;48.720;9.166;2023-05-15T14:26:40;7.57;;;5.13;;
3847;SDS011;1939;48.720;9.166;2023-05-15T14:29:07;6.23;;;4.70;;
3847;SDS011;1939;48.720;9.166;2023-05-15T14:31:33;6.97;;;4.93;;
3847;SDS011;1939;48.720;9.166;2023-05-15T14:33:58;7.50;;;4.10;;
3847;SDS011;1939;48.720;9.166;2023-05-15T14:36:23;6.63;;;5.03;;
3847;SDS011;1939;48.720;9.166;2023-05-15T14:38:48;4.30;;;3.90;;
3847;SDS011;1939;48.720;9.166;2023-05-15T14:41:14;4.10;;;3.70;;
3847;SDS011;1939;48.720;9.166;2023-05-15T14:43:39;8.07;;;5.33;;
3847;SDS011;1939;48.720;9.166;2023-05-15T14:46:04;6.27;;;4.60;;
3847;SDS011;1939;48.720;9.166;2023-05-15T14:48:30;7.47;;;4.67;;
3847;SDS011;1939;48.720;9.166;2023-05-15T14:50:55;5.73;;;4.83;;
3847;SDS011;1939;48.720;9.166;2023-05-15T14:53:21;6.10;;;3.97;;
3847;SDS011;1939;48.720;9.166;2023-05-15T14:55:46;6.40;;;4.63;;
3847;SDS011;1939;48.720;9.166;2023-05-15T14:58:11;8.13;;;4.97;;
3847;SDS011;1939;48.720;9.166;2023-05-15T15:00:37;7.17;;;4.73;;
3847;SDS011;1939;48.720;9.166;2023-05-15T15:03:02;5.70;;;4.80;;
3847;SDS011;1939;48.720;9.166;2023-05-15T15:05:28;7.17;;;5.00;;
3847;SDS011;1939;48.720;9.166;2023-05-15T15:10:21;6.03;;;5.33;;
3847;SDS011;1939;48.720;9.166;2023-05-15T15:12:46;6.10;;;4.60;;
3847;SDS011;1939;48.720;9.166;2023-05-15T15:15:12;8.80;;;5.10;;
3847;SDS011;1939;48.720;9.166;2023-05-15T15:17:37;8.10;;;5.80;;
3847;SDS011;1939;48.720;9.166;2023-05-15T15:20:02;8.00;;;5.67;;
3847;SDS011;1939;48.720;9.166;2023-05-15T15:22:29;8.20;;;5.63;;